createdAt,value
2018-01-15T00:00:35.251Z,99.24
2018-01-15T00:01:35.187Z,98.43
2018-01-15T00:02:35.122Z,98.62
2018-01-15T00:03:35.058Z,99.38
2018-01-15T00:04:34.994Z,99.76
2018-01-15T00:05:34.931Z,99.95
2018-01-15T00:06:34.867Z,99.00
2018-01-15T00:07:34.805Z,98.33
2018-01-15T00:08:34.741Z,98.81
2018-01-15T00:09:34.676Z,99.66
2018-01-15T00:10:34.613Z,98.52
2018-01-15T00:11:34.548Z,99.47
2018-01-15T00:12:34.484Z,99.19
2018-01-15T00:13:34.422Z,99.38
2018-01-15T00:14:34.358Z,98.58
2018-01-15T00:15:34.296Z,99.62
2018-01-15T00:16:34.230Z,99.19
2018-01-15T00:17:34.168Z,98.71
2018-01-15T00:18:34.104Z,98.52
2018-01-15T00:19:34.039Z,98.58
2018-01-15T00:20:34.002Z,99.80
2018-01-15T00:21:33.912Z,98.81
2018-01-15T00:22:33.849Z,98.48
2018-01-15T00:23:33.789Z,98.43
2018-01-15T00:24:33.720Z,99.00
2018-01-15T00:25:33.656Z,99.24
2018-01-15T00:26:33.596Z,99.57
2018-01-15T00:27:33.530Z,98.43
2018-01-15T00:28:33.464Z,97.96
2018-01-15T00:29:33.405Z,98.62
2018-01-15T00:30:33.337Z,98.33
2018-01-15T00:31:33.274Z,99.33
2018-01-15T00:32:33.210Z,99.00
2018-01-15T00:33:33.148Z,99.99
2018-01-15T00:34:33.082Z,99.66
2018-01-15T00:35:33.020Z,99.57
2018-01-15T00:36:32.955Z,99.38
2018-01-15T00:37:32.890Z,99.47
2018-01-15T00:38:32.825Z,99.19
2018-01-15T00:39:32.762Z,99.47
2018-01-15T00:40:32.698Z,99.09
2018-01-15T00:41:32.640Z,99.38
2018-01-15T00:42:32.571Z,99.47
2018-01-15T00:43:32.510Z,99.38
2018-01-15T00:44:32.447Z,99.28
2018-01-15T00:45:32.386Z,99.09
2018-01-15T00:46:32.317Z,99.47
2018-01-15T00:47:32.252Z,99.99
2018-01-15T00:48:32.192Z,99.38
2018-01-15T00:49:32.121Z,99.47
2018-01-15T00:50:32.059Z,99.28
2018-01-15T00:51:31.997Z,99.57
2018-01-15T00:52:31.935Z,99.19
2018-01-15T00:53:31.869Z,99.57
2018-01-15T00:54:31.803Z,98.81
2018-01-15T00:55:31.741Z,98.43
2018-01-15T00:56:31.682Z,97.20
2018-01-15T00:57:31.616Z,98.05
2018-01-15T00:58:31.549Z,97.77
2018-01-15T00:59:31.489Z,98.05
2018-01-15T01:00:31.420Z,98.33
2018-01-15T01:01:31.358Z,99.09
2018-01-15T01:02:31.294Z,99.28
2018-01-15T01:03:31.231Z,98.24
2018-01-15T01:04:31.166Z,99.47
2018-01-15T01:05:31.102Z,98.62
2018-01-15T01:06:31.040Z,98.52
2018-01-15T01:07:30.974Z,98.43
2018-01-15T01:08:30.909Z,99.47
2018-01-15T01:09:30.854Z,97.77
2018-01-15T01:10:30.784Z,98.05
2018-01-15T01:11:30.719Z,98.24
2018-01-15T01:12:30.656Z,98.52
2018-01-15T01:13:30.601Z,99.47
2018-01-15T01:14:30.529Z,98.62
2018-01-15T01:15:30.462Z,98.90
2018-01-15T01:16:30.399Z,98.90
2018-01-15T01:17:30.335Z,99.38
2018-01-15T01:18:30.271Z,99.00
2018-01-15T01:19:30.207Z,98.43
2018-01-15T01:20:30.150Z,97.96
2018-01-15T01:21:30.084Z,99.19
2018-01-15T01:22:30.018Z,98.05
2018-01-15T01:23:29.952Z,98.05
2018-01-15T01:24:29.886Z,98.14
2018-01-15T01:25:29.826Z,98.43
2018-01-15T01:26:29.760Z,98.52
2018-01-15T01:27:29.697Z,97.96
2018-01-15T01:28:29.633Z,97.86
2018-01-15T01:29:29.570Z,98.05
2018-01-15T01:30:29.504Z,98.33
2018-01-15T01:31:29.441Z,98.14
2018-01-15T01:32:29.379Z,98.33
2018-01-15T01:33:29.315Z,99.28
2018-01-15T01:34:29.248Z,98.62
2018-01-15T01:35:29.187Z,98.24
2018-01-15T01:36:29.124Z,98.62
2018-01-15T01:37:29.057Z,99.47
2018-01-15T01:38:28.991Z,98.33
2018-01-15T01:39:28.929Z,98.24
2018-01-15T01:40:28.866Z,98.24
2018-01-15T01:41:28.802Z,98.43
2018-01-15T01:42:28.737Z,98.52
2018-01-15T01:43:28.673Z,98.71
2018-01-15T01:44:28.609Z,98.24
2018-01-15T01:45:28.544Z,99.09
2018-01-15T01:46:28.481Z,98.33
2018-01-15T01:47:28.416Z,98.52
2018-01-15T01:48:28.354Z,98.33
2018-01-15T01:49:28.295Z,98.14
2018-01-15T01:50:28.238Z,98.33
2018-01-15T01:51:28.163Z,98.43
2018-01-15T01:52:28.098Z,98.43
2018-01-15T01:53:28.035Z,98.43
2018-01-15T01:54:27.969Z,98.52
2018-01-15T01:55:27.905Z,98.62
2018-01-15T01:56:27.846Z,98.33
2018-01-15T01:57:27.780Z,97.86
2018-01-15T01:58:27.716Z,98.33
2018-01-15T01:59:27.651Z,98.33
2018-01-15T02:00:27.587Z,98.05
2018-01-15T02:01:27.524Z,98.14
2018-01-15T02:02:27.462Z,98.43
2018-01-15T02:03:27.397Z,98.62
2018-01-15T02:04:27.330Z,98.90
2018-01-15T02:05:27.271Z,99.09
2018-01-15T02:06:27.202Z,98.24
2018-01-15T02:07:27.139Z,97.20
2018-01-15T02:08:27.077Z,98.14
2018-01-15T02:09:27.013Z,99.00
2018-01-15T02:10:26.947Z,99.09
2018-01-15T02:11:26.883Z,98.43
2018-01-15T02:12:26.822Z,98.33
2018-01-15T02:13:26.756Z,98.52
2018-01-15T02:14:26.693Z,98.52
2018-01-15T02:15:26.628Z,97.86
2018-01-15T02:16:26.570Z,99.00
2018-01-15T02:17:26.500Z,98.43
2018-01-15T02:18:26.436Z,99.57
2018-01-15T02:19:26.371Z,97.96
2018-01-15T02:20:26.308Z,97.77
2018-01-15T02:21:26.244Z,97.49
2018-01-15T02:22:26.179Z,98.24
2018-01-15T02:23:26.116Z,98.14
2018-01-15T02:24:26.052Z,98.05
2018-01-15T02:25:25.988Z,98.33
2018-01-15T02:26:25.926Z,98.05
2018-01-15T02:27:25.859Z,98.33
2018-01-15T02:28:25.796Z,98.52
2018-01-15T02:29:25.732Z,98.05
2018-01-15T02:30:25.668Z,98.33
2018-01-15T02:31:25.604Z,98.14
2018-01-15T02:32:25.544Z,98.05
2018-01-15T02:33:25.477Z,98.90
2018-01-15T02:34:25.411Z,99.00
2018-01-15T02:35:25.348Z,98.62
2018-01-15T02:36:25.283Z,98.52
2018-01-15T02:37:25.250Z,97.86
2018-01-15T02:38:25.154Z,98.14
2018-01-15T02:39:25.091Z,98.62
2018-01-15T02:40:25.028Z,98.24
2018-01-15T02:41:24.964Z,98.24
2018-01-15T02:42:24.898Z,98.33
2018-01-15T02:43:24.836Z,98.62
2018-01-15T02:44:24.771Z,99.38
2018-01-15T02:45:24.706Z,98.33
2018-01-15T02:46:24.655Z,99.09
2018-01-15T02:47:24.581Z,98.52
2018-01-15T02:48:24.516Z,99.57
2018-01-15T02:49:24.451Z,98.52
2018-01-15T02:50:24.386Z,98.62
2018-01-15T02:51:24.322Z,99.28
2018-01-15T02:52:24.260Z,99.57
2018-01-15T02:53:24.198Z,99.28
2018-01-15T02:54:24.133Z,99.00
2018-01-15T02:55:24.065Z,99.47
2018-01-15T02:56:24.003Z,99.57
2018-01-15T02:57:23.941Z,98.62
2018-01-15T02:58:23.875Z,99.57
2018-01-15T02:59:23.811Z,99.57
2018-01-15T03:00:23.749Z,98.05
2018-01-15T03:01:23.684Z,98.05
2018-01-15T03:02:23.619Z,98.24
2018-01-15T03:03:23.555Z,98.14
2018-01-15T03:04:23.489Z,99.09
2018-01-15T03:05:23.425Z,99.99
2018-01-15T03:06:23.361Z,99.76
2018-01-15T03:07:23.297Z,98.43
2018-01-15T03:08:23.235Z,98.43
2018-01-15T03:09:23.169Z,98.81
2018-01-15T03:10:23.104Z,99.09
2018-01-15T03:11:23.041Z,99.19
2018-01-15T03:12:22.976Z,99.38
2018-01-15T03:13:22.914Z,98.43
2018-01-15T03:14:22.849Z,98.52
2018-01-15T03:15:22.783Z,97.86
2018-01-15T03:16:22.720Z,98.14
2018-01-15T03:17:22.656Z,98.33
2018-01-15T03:18:22.596Z,98.81
2018-01-15T03:19:22.528Z,98.43
2018-01-15T03:20:22.464Z,99.99
2018-01-15T03:21:22.402Z,99.00
2018-01-15T03:22:22.334Z,97.58
2018-01-15T03:23:22.272Z,99.38
2018-01-15T03:24:22.210Z,99.28
2018-01-15T03:25:22.144Z,98.43
2018-01-15T03:26:22.079Z,98.33
2018-01-15T03:27:22.015Z,98.52
2018-01-15T03:28:21.955Z,99.28
2018-01-15T03:29:21.887Z,99.19
2018-01-15T03:30:21.823Z,97.96
2018-01-15T03:31:21.757Z,97.86
2018-01-15T03:32:21.694Z,98.52
2018-01-15T03:33:21.631Z,99.57
2018-01-15T03:34:21.566Z,99.57
2018-01-15T03:35:21.501Z,98.05
2018-01-15T03:36:21.439Z,98.33
2018-01-15T03:37:21.373Z,98.81
2018-01-15T03:38:21.307Z,99.47
2018-01-15T03:39:21.242Z,99.19
2018-01-15T03:40:21.180Z,99.19
2018-01-15T03:41:21.115Z,99.19
2018-01-15T03:42:21.051Z,99.47
2018-01-15T03:43:20.987Z,99.09
2018-01-15T03:44:20.925Z,98.81
2018-01-15T03:45:20.858Z,97.96
2018-01-15T03:46:20.795Z,99.19
2018-01-15T03:47:20.729Z,99.00
2018-01-15T03:48:20.667Z,99.00
2018-01-15T03:49:20.602Z,98.33
2018-01-15T03:50:20.537Z,99.66
2018-01-15T03:51:20.474Z,99.80
2018-01-15T03:52:20.414Z,99.04
2018-01-15T03:53:20.359Z,97.81
2018-01-15T03:54:20.281Z,98.38
2018-01-15T03:55:20.215Z,98.10
2018-01-15T03:56:20.151Z,98.05
2018-01-15T03:57:20.089Z,98.76
2018-01-15T03:58:20.025Z,98.38
2018-01-15T03:59:19.959Z,98.00
2018-01-15T04:00:19.895Z,97.34
2018-01-15T04:01:19.829Z,97.91
2018-01-15T04:02:19.767Z,97.91
2018-01-15T04:03:19.702Z,98.00
2018-01-15T04:04:19.637Z,97.81
2018-01-15T04:05:19.575Z,98.66
2018-01-15T04:06:19.506Z,97.81
2018-01-15T04:07:19.447Z,97.25
2018-01-15T04:08:19.379Z,97.91
2018-01-15T04:09:19.316Z,99.04
2018-01-15T04:10:19.250Z,97.91
2018-01-15T04:11:19.189Z,97.72
2018-01-15T04:12:19.123Z,97.53
2018-01-15T04:13:19.056Z,97.06
2018-01-15T04:14:18.991Z,98.28
2018-01-15T04:15:18.927Z,98.10
2018-01-15T04:16:18.866Z,98.00
2018-01-15T04:17:18.799Z,98.00
2018-01-15T04:18:18.733Z,97.25
2018-01-15T04:19:18.668Z,98.10
2018-01-15T04:20:18.604Z,97.06
2018-01-15T04:21:18.539Z,96.96
2018-01-15T04:22:18.476Z,97.77
2018-01-15T04:23:18.412Z,98.38
2018-01-15T04:24:18.349Z,99.19
2018-01-15T04:25:18.290Z,98.76
2018-01-15T04:26:18.219Z,98.14
2018-01-15T04:27:18.158Z,97.86
2018-01-15T04:28:18.090Z,99.28
2018-01-15T04:29:18.025Z,99.09
2018-01-15T04:30:17.958Z,97.77
2018-01-15T04:31:17.894Z,98.14
2018-01-15T04:32:17.831Z,97.81
2018-01-15T04:33:17.767Z,99.14
2018-01-15T04:34:17.704Z,98.10
2018-01-15T04:35:17.637Z,99.28
2018-01-15T04:36:17.575Z,98.76
2018-01-15T04:37:17.592Z,98.00
2018-01-15T04:38:17.444Z,97.63
2018-01-15T04:39:17.385Z,97.63
2018-01-15T04:40:17.317Z,98.00
2018-01-15T04:41:17.252Z,97.53
2018-01-15T04:42:17.186Z,99.57
2018-01-15T04:43:17.120Z,98.47
2018-01-15T04:44:17.057Z,98.00
2018-01-15T04:45:16.993Z,98.00
2018-01-15T04:46:16.932Z,98.00
2018-01-15T04:47:16.866Z,98.47
2018-01-15T04:48:16.806Z,97.81
2018-01-15T04:49:16.738Z,98.10
2018-01-15T04:50:16.671Z,98.00
2018-01-15T04:51:16.605Z,99.04
2018-01-15T04:52:16.546Z,98.00
2018-01-15T04:53:16.478Z,98.85
2018-01-15T04:54:16.412Z,97.44
2018-01-15T04:55:16.349Z,97.72
2018-01-15T04:56:16.285Z,97.96
2018-01-15T04:57:16.222Z,98.24
2018-01-15T04:58:16.157Z,99.23
2018-01-15T04:59:16.091Z,98.52
2018-01-15T05:00:16.026Z,99.04
2018-01-15T05:01:15.964Z,97.53
2018-01-15T05:02:15.898Z,97.81
2018-01-15T05:03:15.834Z,97.81
2018-01-15T05:04:15.773Z,99.04
2018-01-15T05:05:15.705Z,98.00
2018-01-15T05:06:15.639Z,98.47
2018-01-15T05:07:15.575Z,97.63
2018-01-15T05:08:15.517Z,97.63
2018-01-15T05:09:15.447Z,97.81
2018-01-15T05:10:15.385Z,97.72
2018-01-15T05:11:15.322Z,98.00
2018-01-15T05:12:15.255Z,98.28
2018-01-15T05:13:15.188Z,99.14
2018-01-15T05:14:15.126Z,99.42
2018-01-15T05:15:15.061Z,98.10
2018-01-15T05:16:14.996Z,98.47
2018-01-15T05:17:14.931Z,97.44
2018-01-15T05:18:14.867Z,97.81
2018-01-15T05:19:14.805Z,97.25
2018-01-15T05:20:14.739Z,97.34
2018-01-15T05:21:14.678Z,97.53
2018-01-15T05:22:14.612Z,97.44
2018-01-15T05:23:14.544Z,97.81
2018-01-15T05:24:14.483Z,97.44
2018-01-15T05:25:14.414Z,97.63
2018-01-15T05:26:14.354Z,97.53
2018-01-15T05:27:14.286Z,98.28
2018-01-15T05:28:14.220Z,97.25
2018-01-15T05:29:14.157Z,97.81
2018-01-15T05:30:14.091Z,97.44
2018-01-15T05:31:14.028Z,97.44
2018-01-15T05:32:13.966Z,97.44
2018-01-15T05:33:13.901Z,97.91
2018-01-15T05:34:13.834Z,97.72
2018-01-15T05:35:13.767Z,97.15
2018-01-15T05:36:13.703Z,96.68
2018-01-15T05:37:13.640Z,96.78
2018-01-15T05:38:13.573Z,97.25
2018-01-15T05:39:13.510Z,97.15
2018-01-15T05:40:13.444Z,97.34
2018-01-15T05:41:13.380Z,97.25
2018-01-15T05:42:13.314Z,95.83
2018-01-15T05:43:13.251Z,97.81
2018-01-15T05:44:13.184Z,97.15
2018-01-15T05:45:13.139Z,97.06
2018-01-15T05:46:13.055Z,97.81
2018-01-15T05:47:12.992Z,97.34
2018-01-15T05:48:12.929Z,96.78
2018-01-15T05:49:12.861Z,96.78
2018-01-15T05:50:12.798Z,96.40
2018-01-15T05:51:12.731Z,96.87
2018-01-15T05:52:12.667Z,96.87
2018-01-15T05:53:12.604Z,97.06
2018-01-15T05:54:12.553Z,96.11
2018-01-15T05:55:12.473Z,95.92
2018-01-15T05:56:12.408Z,97.25
2018-01-15T05:57:12.346Z,97.15
2018-01-15T05:58:12.275Z,96.49
2018-01-15T05:59:12.212Z,96.40
2018-01-15T06:00:12.147Z,96.21
2018-01-15T06:01:12.087Z,96.40
2018-01-15T06:02:12.029Z,95.92
2018-01-15T06:03:11.955Z,95.36
2018-01-15T06:04:11.889Z,95.07
2018-01-15T06:05:11.824Z,96.11
2018-01-15T06:06:11.758Z,96.11
2018-01-15T06:07:11.704Z,97.53
2018-01-15T06:08:11.629Z,96.21
2018-01-15T06:09:11.564Z,94.89
2018-01-15T06:10:11.497Z,95.17
2018-01-15T06:11:11.432Z,95.45
2018-01-15T06:12:11.375Z,96.68
2018-01-15T06:13:11.304Z,96.87
2018-01-15T06:14:11.239Z,97.34
2018-01-15T06:15:11.170Z,97.44
2018-01-15T06:16:11.109Z,97.06
2018-01-15T06:17:11.045Z,96.87
2018-01-15T06:18:10.985Z,95.92
2018-01-15T06:19:10.914Z,96.02
2018-01-15T06:20:10.849Z,96.59
2018-01-15T06:21:10.795Z,96.87
2018-01-15T06:22:10.718Z,96.21
2018-01-15T06:23:10.662Z,96.59
2018-01-15T06:24:10.593Z,94.89
2018-01-15T06:25:10.525Z,96.02
2018-01-15T06:26:10.459Z,95.83
2018-01-15T06:27:10.395Z,94.79
2018-01-15T06:28:10.330Z,95.92
2018-01-15T06:29:10.267Z,96.30
2018-01-15T06:30:10.199Z,96.02
2018-01-15T06:31:10.133Z,95.54
2018-01-15T06:32:10.072Z,96.11
2018-01-15T06:33:10.007Z,95.92
2018-01-15T06:34:09.938Z,96.11
2018-01-15T06:35:09.879Z,95.17
2018-01-15T06:36:09.811Z,94.60
2018-01-15T06:37:09.744Z,95.07
2018-01-15T06:38:09.678Z,94.79
2018-01-15T06:39:09.614Z,96.30
2018-01-15T06:40:09.550Z,96.59
2018-01-15T06:41:09.483Z,95.64
2018-01-15T06:42:09.418Z,95.17
2018-01-15T06:43:09.356Z,96.40
2018-01-15T06:44:09.289Z,96.21
2018-01-15T06:45:09.227Z,94.70
2018-01-15T06:46:09.157Z,94.70
2018-01-15T06:47:09.098Z,94.89
2018-01-15T06:48:09.032Z,95.26
2018-01-15T06:49:08.968Z,94.79
2018-01-15T06:50:08.898Z,95.07
2018-01-15T06:51:08.835Z,94.98
2018-01-15T06:52:08.770Z,95.54
2018-01-15T06:53:08.706Z,96.02
2018-01-15T06:54:08.639Z,95.83
2018-01-15T06:55:08.578Z,96.02
2018-01-15T06:56:08.510Z,95.54
2018-01-15T06:57:08.445Z,94.32
2018-01-15T06:58:08.379Z,94.89
2018-01-15T06:59:08.323Z,95.92
2018-01-15T07:00:08.250Z,95.54
2018-01-15T07:01:08.184Z,94.79
2018-01-15T07:02:08.118Z,94.22
2018-01-15T07:03:08.054Z,95.45
2018-01-15T07:04:07.990Z,94.60
2018-01-15T07:05:07.924Z,94.89
2018-01-15T07:06:07.858Z,95.26
2018-01-15T07:07:07.795Z,96.96
2018-01-15T07:08:07.730Z,96.11
2018-01-15T07:09:07.665Z,95.36
2018-01-15T07:10:07.601Z,95.45
2018-01-15T07:11:07.536Z,95.73
2018-01-15T07:12:07.471Z,95.45
2018-01-15T07:13:07.408Z,95.54
2018-01-15T07:14:07.340Z,95.54
2018-01-15T07:15:07.276Z,94.51
2018-01-15T07:16:07.211Z,96.02
2018-01-15T07:17:07.147Z,95.64
2018-01-15T07:18:07.084Z,95.54
2018-01-15T07:19:07.015Z,94.89
2018-01-15T07:20:06.950Z,95.36
2018-01-15T07:21:06.886Z,94.98
2018-01-15T07:22:06.819Z,94.51
2018-01-15T07:23:06.755Z,95.92
2018-01-15T07:24:06.696Z,96.21
2018-01-15T07:25:06.627Z,95.45
2018-01-15T07:26:06.560Z,96.02
2018-01-15T07:27:06.496Z,95.83
2018-01-15T07:28:06.433Z,95.45
2018-01-15T07:29:06.366Z,94.60
2018-01-15T07:30:06.299Z,95.07
2018-01-15T07:31:06.235Z,94.89
2018-01-15T07:32:06.175Z,95.26
2018-01-15T07:33:06.109Z,94.98
2018-01-15T07:34:06.041Z,95.07
2018-01-15T07:35:05.974Z,94.51
2018-01-15T07:36:05.978Z,95.17
2018-01-15T07:37:05.846Z,94.60
2018-01-15T07:38:05.782Z,94.98
2018-01-15T07:39:05.716Z,94.79
2018-01-15T07:40:05.651Z,95.45
2018-01-15T07:41:05.586Z,95.07
2018-01-15T07:42:05.518Z,94.70
2018-01-15T07:43:05.454Z,94.89
2018-01-15T07:44:05.396Z,95.07
2018-01-15T07:45:05.332Z,95.07
2018-01-15T07:46:05.260Z,95.26
2018-01-15T07:47:05.197Z,94.51
2018-01-15T07:48:05.135Z,95.17
2018-01-15T07:49:05.068Z,94.32
2018-01-15T07:50:05.004Z,94.13
2018-01-15T07:51:04.937Z,94.79
2018-01-15T07:52:04.874Z,94.70
2018-01-15T07:53:04.809Z,93.94
2018-01-15T07:54:04.744Z,94.79
2018-01-15T07:55:04.679Z,95.17
2018-01-15T07:56:04.612Z,94.70
2018-01-15T07:57:04.549Z,95.17
2018-01-15T07:58:04.487Z,94.79
2018-01-15T07:59:04.420Z,96.78
2018-01-15T08:00:04.353Z,96.11
2018-01-15T08:01:04.288Z,96.02
2018-01-15T08:02:04.224Z,95.83
2018-01-15T08:03:04.159Z,97.06
2018-01-15T08:04:04.096Z,95.26
2018-01-15T08:05:04.032Z,95.17
2018-01-15T08:06:03.964Z,96.11
2018-01-15T08:07:03.901Z,97.30
2018-01-15T08:08:03.837Z,96.73
2018-01-15T08:09:03.771Z,97.39
2018-01-15T08:10:03.702Z,97.11
2018-01-15T08:11:03.640Z,96.92
2018-01-15T08:12:03.577Z,96.54
2018-01-15T08:13:03.519Z,97.49
2018-01-15T08:14:03.448Z,98.47
2018-01-15T08:15:03.389Z,97.25
2018-01-15T08:16:03.318Z,97.15
2018-01-15T08:17:03.260Z,96.78
2018-01-15T08:18:03.191Z,96.73
2018-01-15T08:19:03.124Z,97.20
2018-01-15T08:20:03.061Z,96.40
2018-01-15T08:21:02.997Z,96.73
2018-01-15T08:22:02.934Z,96.68
2018-01-15T08:23:02.867Z,96.45
2018-01-15T08:24:02.806Z,96.26
2018-01-15T08:25:02.741Z,97.58
2018-01-15T08:26:02.676Z,97.11
2018-01-15T08:27:02.610Z,97.30
2018-01-15T08:28:02.544Z,97.30
2018-01-15T08:29:02.480Z,97.30
2018-01-15T08:30:02.443Z,98.24
2018-01-15T08:31:02.354Z,98.05
2018-01-15T08:32:02.290Z,97.77
2018-01-15T08:33:02.223Z,98.14
2018-01-15T08:34:02.158Z,98.43
2018-01-15T08:35:02.092Z,97.49
2018-01-15T08:36:02.031Z,98.05
2018-01-15T08:37:01.968Z,98.14
2018-01-15T08:38:01.903Z,98.43
2018-01-15T08:39:01.839Z,99.19
2018-01-15T08:40:01.771Z,98.14
2018-01-15T08:41:01.707Z,99.47
2018-01-15T08:42:01.641Z,99.99
2018-01-15T08:43:01.579Z,99.99
2018-01-15T08:44:01.514Z,99.47
2018-01-15T08:45:01.448Z,99.57
2018-01-15T08:46:01.388Z,99.28
2018-01-15T08:47:01.319Z,98.43
2018-01-15T08:48:01.255Z,99.76
2018-01-15T08:49:01.191Z,98.43
2018-01-15T08:50:01.128Z,98.33
2018-01-15T08:51:01.065Z,98.43
2018-01-15T08:52:01.024Z,98.33
2018-01-15T08:53:00.935Z,98.52
2018-01-15T08:54:00.870Z,98.05
2018-01-15T08:55:00.844Z,99.38
2018-01-15T08:56:00.744Z,99.19
2018-01-15T08:57:00.679Z,98.24
2018-01-15T08:58:00.615Z,98.33
2018-01-15T08:59:00.548Z,98.52
2018-01-15T09:00:00.477Z,99.38
2018-01-15T09:01:00.422Z,98.43
2018-01-15T09:02:00.358Z,97.96
2018-01-15T09:03:00.293Z,99.85
2018-01-15T09:04:00.230Z,98.43
2018-01-15T09:05:00.164Z,99.99
2018-01-15T09:06:00.102Z,99.99
2018-01-15T09:07:00.037Z,99.19
2018-01-15T09:07:59.976Z,99.99
2018-01-15T09:08:59.911Z,99.99
2018-01-15T09:09:59.845Z,99.99
2018-01-15T09:10:59.779Z,99.85
2018-01-15T09:11:59.717Z,99.99
2018-01-15T09:12:59.652Z,99.99
2018-01-15T09:13:59.586Z,99.62
2018-01-15T09:14:59.528Z,99.99
2018-01-15T09:15:59.459Z,99.99
2018-01-15T09:16:59.395Z,99.99
2018-01-15T09:17:59.330Z,99.99
2018-01-15T09:18:59.312Z,99.99
2018-01-15T09:19:59.204Z,99.99
2018-01-15T09:20:59.143Z,99.99
2018-01-15T09:21:59.075Z,99.99
2018-01-15T09:22:59.012Z,99.99
2018-01-15T09:23:58.948Z,99.99
2018-01-15T09:24:58.884Z,99.99
2018-01-15T09:25:58.820Z,99.99
2018-01-15T09:26:58.756Z,99.99
2018-01-15T09:27:58.693Z,99.99
2018-01-15T09:28:58.632Z,99.99
2018-01-15T09:29:58.568Z,99.99
2018-01-15T09:30:58.503Z,99.99
2018-01-15T09:31:58.440Z,99.99
2018-01-15T09:32:58.377Z,99.99
2018-01-15T09:33:58.313Z,99.99
2018-01-15T09:34:58.247Z,99.99
2018-01-15T09:35:58.186Z,99.99
2018-01-15T09:36:58.141Z,99.99
2018-01-15T09:37:58.059Z,99.99
2018-01-15T09:38:57.996Z,99.99
2018-01-15T09:39:57.934Z,99.99
2018-01-15T09:40:57.924Z,99.99
2018-01-15T09:41:57.810Z,99.99
2018-01-15T09:42:57.745Z,99.99
2018-01-15T09:43:57.680Z,99.99
2018-01-15T09:44:57.622Z,99.99
2018-01-15T09:45:57.555Z,99.99
2018-01-15T09:46:57.493Z,99.99
2018-01-15T09:47:57.431Z,99.99
2018-01-15T09:48:57.368Z,99.99
2018-01-15T09:49:57.303Z,99.99
2018-01-15T09:50:57.242Z,99.99
2018-01-15T09:51:57.177Z,99.99
2018-01-15T09:52:57.115Z,99.99
2018-01-15T09:53:57.052Z,99.99
2018-01-15T09:54:56.991Z,99.99
2018-01-15T09:55:56.928Z,99.99
2018-01-15T09:56:56.863Z,99.99
2018-01-15T09:57:56.802Z,99.99
2018-01-15T09:58:56.738Z,99.99
2018-01-15T09:59:56.677Z,99.99
2018-01-15T10:00:56.614Z,99.99
2018-01-15T10:01:56.549Z,99.99
2018-01-15T10:02:56.485Z,99.99
2018-01-15T10:03:56.423Z,99.99
2018-01-15T10:04:56.360Z,99.99
2018-01-15T10:05:56.299Z,99.99
2018-01-15T10:06:56.237Z,99.99
2018-01-15T10:07:56.173Z,99.99
2018-01-15T10:08:56.111Z,99.99
2018-01-15T10:09:56.043Z,99.99
2018-01-15T10:10:55.983Z,99.99
2018-01-15T10:11:55.919Z,99.99
2018-01-15T10:12:55.857Z,99.99
2018-01-15T10:13:55.792Z,99.99
2018-01-15T10:14:55.729Z,99.99
2018-01-15T10:15:55.667Z,99.99
2018-01-15T10:16:55.605Z,99.99
2018-01-15T10:17:55.543Z,99.99
2018-01-15T10:18:55.479Z,99.99
2018-01-15T10:19:55.418Z,99.99
2018-01-15T10:20:55.356Z,99.99
2018-01-15T10:21:55.289Z,99.99
2018-01-15T10:22:55.227Z,99.99
2018-01-15T10:23:55.165Z,99.99
2018-01-15T10:24:55.102Z,99.99
2018-01-15T10:25:55.039Z,99.99
2018-01-15T10:26:54.975Z,99.99
2018-01-15T10:27:54.914Z,99.99
2018-01-15T10:28:54.851Z,99.99
2018-01-15T10:29:54.786Z,99.99
2018-01-15T10:30:54.725Z,99.99
2018-01-15T10:31:54.664Z,99.99
2018-01-15T10:32:54.599Z,99.99
2018-01-15T10:33:54.537Z,99.99
2018-01-15T10:34:54.477Z,99.99
2018-01-15T10:35:54.410Z,99.99
2018-01-15T10:36:54.348Z,99.99
2018-01-15T10:37:54.285Z,99.99
2018-01-15T10:38:54.224Z,99.99
2018-01-15T10:39:54.160Z,99.99
2018-01-15T10:40:54.098Z,99.99
2018-01-15T10:41:54.036Z,99.99
2018-01-15T10:42:53.974Z,99.99
2018-01-15T10:43:53.909Z,99.99
2018-01-15T10:44:53.849Z,99.99
2018-01-15T10:45:53.785Z,99.99
2018-01-15T10:46:53.726Z,99.99
2018-01-15T10:47:53.661Z,99.99
2018-01-15T10:48:53.597Z,99.99
2018-01-15T10:49:53.536Z,99.99
2018-01-15T10:50:53.470Z,99.99
2018-01-15T10:51:53.407Z,99.99
2018-01-15T10:52:53.348Z,99.99
2018-01-15T10:53:53.284Z,99.99
2018-01-15T10:54:53.218Z,99.99
2018-01-15T10:55:53.157Z,99.99
2018-01-15T10:56:53.095Z,99.99
2018-01-15T10:57:53.029Z,99.99
2018-01-15T10:58:52.966Z,99.99
2018-01-15T10:59:52.906Z,99.99
2018-01-15T11:00:52.841Z,99.99
2018-01-15T11:01:52.785Z,99.99
2018-01-15T11:02:52.716Z,99.99
2018-01-15T11:03:52.654Z,99.99
2018-01-15T11:04:52.590Z,99.99
2018-01-15T11:05:52.526Z,99.99
2018-01-15T11:06:52.464Z,99.99
2018-01-15T11:07:52.402Z,99.99
2018-01-15T11:08:52.339Z,99.99
2018-01-15T11:09:52.276Z,99.99
2018-01-15T11:10:52.213Z,99.99
2018-01-15T11:11:52.168Z,99.99
2018-01-15T11:12:52.088Z,99.99
2018-01-15T11:13:52.029Z,99.99
2018-01-15T11:14:51.967Z,99.99
2018-01-15T11:15:51.902Z,99.99
2018-01-15T11:16:51.839Z,99.99
2018-01-15T11:17:51.774Z,99.99
2018-01-15T11:18:51.715Z,99.99
2018-01-15T11:19:51.658Z,99.99
2018-01-15T11:20:51.589Z,99.62
2018-01-15T11:21:51.524Z,99.99
2018-01-15T11:22:51.515Z,99.99
2018-01-15T11:23:51.423Z,99.99
2018-01-15T11:24:51.337Z,99.99
2018-01-15T11:25:51.274Z,99.99
2018-01-15T11:26:51.217Z,99.99
2018-01-15T11:27:51.151Z,99.99
2018-01-15T11:28:51.086Z,99.99
2018-01-15T11:29:51.050Z,99.99
2018-01-15T11:30:50.976Z,99.99
2018-01-15T11:31:50.899Z,99.99
2018-01-15T11:32:50.838Z,99.99
2018-01-15T11:33:50.775Z,99.99
2018-01-15T11:34:50.712Z,99.99
2018-01-15T11:35:50.652Z,99.72
2018-01-15T11:36:50.592Z,99.77
2018-01-15T11:37:50.525Z,99.29
2018-01-15T11:38:50.462Z,99.48
2018-01-15T11:39:50.403Z,99.86
2018-01-15T11:40:50.341Z,99.96
2018-01-15T11:41:50.275Z,99.99
2018-01-15T11:42:50.214Z,99.99
2018-01-15T11:43:50.152Z,99.99
2018-01-15T11:44:50.089Z,99.99
2018-01-15T11:45:50.028Z,99.99
2018-01-15T11:46:49.967Z,99.99
2018-01-15T11:47:49.904Z,99.25
2018-01-15T11:48:49.842Z,99.29
2018-01-15T11:49:49.780Z,99.39
2018-01-15T11:50:49.717Z,99.48
2018-01-15T11:51:49.657Z,99.99
2018-01-15T11:52:49.600Z,99.99
2018-01-15T11:53:49.532Z,99.99
2018-01-15T11:54:49.460Z,99.99
2018-01-15T11:55:49.408Z,99.99
2018-01-15T11:56:49.347Z,99.29
2018-01-15T11:57:49.284Z,99.99
2018-01-15T11:58:49.223Z,99.99
2018-01-15T11:59:49.168Z,99.77
2018-01-15T12:00:49.127Z,99.58
2018-01-15T12:01:49.038Z,99.58
2018-01-15T12:02:48.976Z,99.99
2018-01-15T12:03:48.913Z,99.96
2018-01-15T12:04:48.852Z,99.99
2018-01-15T12:05:48.789Z,99.99
2018-01-15T12:06:48.729Z,99.99
2018-01-15T12:07:48.668Z,99.48
2018-01-15T12:08:48.607Z,99.86
2018-01-15T12:09:48.542Z,99.99
2018-01-15T12:10:48.478Z,99.99
2018-01-15T12:11:48.421Z,99.77
2018-01-15T12:12:48.355Z,99.58
2018-01-15T12:13:48.295Z,99.29
2018-01-15T12:14:48.231Z,99.48
2018-01-15T12:15:48.168Z,99.29
2018-01-15T12:16:48.116Z,99.96
2018-01-15T12:17:48.067Z,99.77
2018-01-15T12:18:47.982Z,99.99
2018-01-15T12:19:47.975Z,99.99
2018-01-15T12:20:47.859Z,99.77
2018-01-15T12:21:47.796Z,99.82
2018-01-15T12:22:47.751Z,99.58
2018-01-15T12:23:47.672Z,99.44
2018-01-15T12:24:47.627Z,99.34
2018-01-15T12:25:47.548Z,99.82
2018-01-15T12:26:47.488Z,99.72
2018-01-15T12:27:47.424Z,99.72
2018-01-15T12:28:47.363Z,99.25
2018-01-15T12:29:47.301Z,99.25
2018-01-15T12:30:47.239Z,99.91
2018-01-15T12:31:47.179Z,99.99
2018-01-15T12:32:47.114Z,99.15
2018-01-15T12:33:47.053Z,99.25
2018-01-15T12:34:46.991Z,99.44
2018-01-15T12:35:46.933Z,99.44
2018-01-15T12:36:46.868Z,98.30
2018-01-15T12:37:46.809Z,99.44
2018-01-15T12:38:46.748Z,99.20
2018-01-15T12:39:46.682Z,98.73
2018-01-15T12:40:46.625Z,98.02
2018-01-15T12:41:46.560Z,97.92
2018-01-15T12:42:46.498Z,97.64
2018-01-15T12:43:46.437Z,98.21
2018-01-15T12:44:46.376Z,97.83
2018-01-15T12:45:46.313Z,98.11
2018-01-15T12:46:46.247Z,98.11
2018-01-15T12:47:46.190Z,97.45
2018-01-15T12:48:46.130Z,97.54
2018-01-15T12:49:46.069Z,96.97
2018-01-15T12:50:46.007Z,96.78
2018-01-15T12:51:45.945Z,97.26